sensor_id;sensor_type;location;lat;lon;timestamp;P1;durP1;ratioP1;P2;durP2;ratioP2
6420;SDS011;3243;50.958;7.012;2022-12-07T00:03:43;26.60;;;19.73;;
6420;SDS011;3243;50.958;7.012;2022-12-07T00:06:13;30.13;;;20.63;;
6420;SDS011;3243;50.958;7.012;2022-12-07T00:08:40;29.90;;;20.33;;
6420;SDS011;3243;50.958;7.012;2022-12-07T00:11:15;32.50;;;22.00;;
6420;SDS011;3243;50.958;7.012;2022-12-07T00:13:46;28.67;;;20.50;;
6420;SDS011;3243;50.958;7.012;2022-12-07T00:16:17;29.20;;;20.47;;
6420;SDS011;3243;50.958;7.012;2022-12-07T00:18:45;27.80;;;18.87;;
6420;SDS011;3243;50.958;7.012;2022-12-07T00:21:13;31.47;;;20.27;;
6420;SDS011;3243;50.958;7.012;2022-12-07T00:23:42;23.37;;;17.77;;
6420;SDS011;3243;50.958;7.012;2022-12-07T00:26:14;23.27;;;17.57;;
6420;SDS011;3243;50.958;7.012;2022-12-07T00:29:01;33.60;;;20.13;;
6420;SDS011;3243;50.958;7.012;2022-12-07T00:31:31;30.83;;;21.37;;
6420;SDS011;3243;50.958;7.012;2022-12-07T00:34:01;32.60;;;21.97;;
6420;SDS011;3243;50.958;7.012;2022-12-07T00:36:28;33.23;;;21.97;;
6420;SDS011;3243;50.958;7.012;2022-12-07T00:38:54;29.90;;;19.77;;
6420;SDS011;3243;50.958;7.012;2022-12-07T00:41:22;33.30;;;21.00;;
6420;SDS011;3243;50.958;7.012;2022-12-07T00:43:51;29.87;;;19.43;;
6420;SDS011;3243;50.958;7.012;2022-12-07T00:46:18;26.27;;;18.10;;
6420;SDS011;3243;50.958;7.012;2022-12-07T00:48:46;26.23;;;18.53;;
6420;SDS011;3243;50.958;7.012;2022-12-07T00:51:14;25.17;;;18.40;;
6420;SDS011;3243;50.958;7.012;2022-12-07T00:53:42;25.87;;;18.10;;
6420;SDS011;3243;50.958;7.012;2022-12-07T00:56:13;28.00;;;19.03;;
6420;SDS011;3243;50.958;7.012;2022-12-07T00:58:41;31.27;;;20.93;;
6420;SDS011;3243;50.958;7.012;2022-12-07T01:01:09;27.77;;;19.47;;
6420;SDS011;3243;50.958;7.012;2022-12-07T01:03:37;28.97;;;21.17;;
6420;SDS011;3243;50.958;7.012;2022-12-07T01:06:04;26.10;;;18.37;;
6420;SDS011;3243;50.958;7.012;2022-12-07T01:08:31;25.53;;;18.93;;
6420;SDS011;3243;50.958;7.012;2022-12-07T01:10:59;27.83;;;19.27;;
6420;SDS011;3243;50.958;7.012;2022-12-07T01:13:27;25.03;;;18.67;;
6420;SDS011;3243;50.958;7.012;2022-12-07T01:15:56;23.33;;;17.33;;
6420;SDS011;3243;50.958;7.012;2022-12-07T01:18:28;24.57;;;18.20;;
6420;SDS011;3243;50.958;7.012;2022-12-07T01:21:00;26.20;;;18.40;;
6420;SDS011;3243;50.958;7.012;2022-12-07T01:23:36;24.90;;;18.53;;
6420;SDS011;3243;50.958;7.012;2022-12-07T01:26:05;24.47;;;17.60;;
6420;SDS011;3243;50.958;7.012;2022-12-07T01:28:33;29.67;;;20.20;;
6420;SDS011;3243;50.958;7.012;2022-12-07T01:31:05;28.57;;;19.93;;
6420;SDS011;3243;50.958;7.012;2022-12-07T01:33:42;26.00;;;19.70;;
6420;SDS011;3243;50.958;7.012;2022-12-07T01:36:17;27.50;;;20.03;;
6420;SDS011;3243;50.958;7.012;2022-12-07T01:38:46;32.90;;;21.93;;
6420;SDS011;3243;50.958;7.012;2022-12-07T01:41:15;27.63;;;20.63;;
6420;SDS011;3243;50.958;7.012;2022-12-07T01:46:54;28.10;;;19.33;;
6420;SDS011;3243;50.958;7.012;2022-12-07T01:49:33;29.67;;;20.80;;
6420;SDS011;3243;50.958;7.012;2022-12-07T01:52:13;31.20;;;21.83;;
6420;SDS011;3243;50.958;7.012;2022-12-07T01:54:53;25.60;;;19.20;;
6420;SDS011;3243;50.958;7.012;2022-12-07T01:57:22;32.77;;;22.83;;
6420;SDS011;3243;50.958;7.012;2022-12-07T01:59:49;30.73;;;20.73;;
6420;SDS011;3243;50.958;7.012;2022-12-07T02:02:19;30.03;;;22.47;;
6420;SDS011;3243;50.958;7.012;2022-12-07T02:04:52;31.30;;;21.97;;
6420;SDS011;3243;50.958;7.012;2022-12-07T02:07:21;33.37;;;22.90;;
6420;SDS011;3243;50.958;7.012;2022-12-07T02:09:49;29.73;;;21.97;;
6420;SDS011;3243;50.958;7.012;2022-12-07T02:12:16;35.93;;;25.27;;
6420;SDS011;3243;50.958;7.012;2022-12-07T02:14:43;33.97;;;22.60;;
6420;SDS011;3243;50.958;7.012;2022-12-07T02:17:15;38.00;;;24.30;;
6420;SDS011;3243;50.958;7.012;2022-12-07T02:25:39;34.63;;;23.10;;
6420;SDS011;3243;50.958;7.012;2022-12-07T02:30:45;37.87;;;24.73;;
6420;SDS011;3243;50.958;7.012;2022-12-07T02:33:19;31.43;;;22.63;;
6420;SDS011;3243;50.958;7.012;2022-12-07T02:36:05;35.73;;;24.60;;
6420;SDS011;3243;50.958;7.012;2022-12-07T02:38:43;30.23;;;21.43;;
6420;SDS011;3243;50.958;7.012;2022-12-07T02:44:16;35.67;;;22.67;;
6420;SDS011;3243;50.958;7.012;2022-12-07T02:46:50;29.00;;;21.23;;
6420;SDS011;3243;50.958;7.012;2022-12-07T02:49:23;33.80;;;21.47;;
6420;SDS011;3243;50.958;7.012;2022-12-07T02:51:52;30.53;;;21.00;;
6420;SDS011;3243;50.958;7.012;2022-12-07T02:54:20;27.90;;;20.53;;
6420;SDS011;3243;50.958;7.012;2022-12-07T03:10:59;31.53;;;22.53;;
6420;SDS011;3243;50.958;7.012;2022-12-07T03:16:28;34.13;;;23.17;;
6420;SDS011;3243;50.958;7.012;2022-12-07T03:19:07;32.50;;;22.63;;
6420;SDS011;3243;50.958;7.012;2022-12-07T03:21:41;30.83;;;22.40;;
6420;SDS011;3243;50.958;7.012;2022-12-07T03:24:14;28.67;;;21.07;;
6420;SDS011;3243;50.958;7.012;2022-12-07T03:26:45;36.63;;;23.70;;
6420;SDS011;3243;50.958;7.012;2022-12-07T03:29:20;29.57;;;22.60;;
6420;SDS011;3243;50.958;7.012;2022-12-07T03:31:56;31.20;;;22.20;;
6420;SDS011;3243;50.958;7.012;2022-12-07T03:34:50;33.10;;;22.57;;
6420;SDS011;3243;50.958;7.012;2022-12-07T03:37:49;31.30;;;23.17;;
6420;SDS011;3243;50.958;7.012;2022-12-07T03:42:50;31.07;;;22.13;;
6420;SDS011;3243;50.958;7.012;2022-12-07T03:45:18;32.40;;;23.10;;
6420;SDS011;3243;50.958;7.012;2022-12-07T03:47:51;31.50;;;22.63;;
6420;SDS011;3243;50.958;7.012;2022-12-07T03:50:31;29.40;;;21.40;;
6420;SDS011;3243;50.958;7.012;2022-12-07T03:53:29;30.50;;;22.40;;
6420;SDS011;3243;50.958;7.012;2022-12-07T03:56:05;30.63;;;21.73;;
6420;SDS011;3243;50.958;7.012;2022-12-07T03:58:34;31.33;;;21.63;;
6420;SDS011;3243;50.958;7.012;2022-12-07T04:01:01;34.23;;;23.33;;
6420;SDS011;3243;50.958;7.012;2022-12-07T04:03:28;30.27;;;21.87;;
6420;SDS011;3243;50.958;7.012;2022-12-07T04:05:55;32.63;;;23.00;;
6420;SDS011;3243;50.958;7.012;2022-12-07T04:08:24;34.07;;;21.70;;
6420;SDS011;3243;50.958;7.012;2022-12-07T04:10:50;31.63;;;22.33;;
6420;SDS011;3243;50.958;7.012;2022-12-07T04:13:18;33.57;;;23.77;;
6420;SDS011;3243;50.958;7.012;2022-12-07T04:15:45;31.87;;;21.93;;
6420;SDS011;3243;50.958;7.012;2022-12-07T04:18:12;35.03;;;22.97;;
6420;SDS011;3243;50.958;7.012;2022-12-07T04:20:39;32.77;;;23.00;;
6420;SDS011;3243;50.958;7.012;2022-12-07T04:23:05;37.33;;;23.60;;
6420;SDS011;3243;50.958;7.012;2022-12-07T04:25:32;31.07;;;21.73;;
6420;SDS011;3243;50.958;7.012;2022-12-07T04:27:59;30.00;;;20.73;;
6420;SDS011;3243;50.958;7.012;2022-12-07T04:30:26;31.67;;;22.10;;
6420;SDS011;3243;50.958;7.012;2022-12-07T04:32:53;32.87;;;22.63;;
6420;SDS011;3243;50.958;7.012;2022-12-07T04:35:20;30.37;;;22.43;;
6420;SDS011;3243;50.958;7.012;2022-12-07T04:37:47;32.03;;;21.70;;
6420;SDS011;3243;50.958;7.012;2022-12-07T04:40:14;32.87;;;21.60;;
6420;SDS011;3243;50.958;7.012;2022-12-07T04:42:41;33.63;;;21.87;;
6420;SDS011;3243;50.958;7.012;2022-12-07T04:45:08;33.40;;;22.13;;
6420;SDS011;3243;50.958;7.012;2022-12-07T04:47:35;32.13;;;21.73;;
6420;SDS011;3243;50.958;7.012;2022-12-07T04:50:01;31.00;;;21.17;;
6420;SDS011;3243;50.958;7.012;2022-12-07T04:52:29;27.73;;;20.53;;
6420;SDS011;3243;50.958;7.012;2022-12-07T04:54:56;31.73;;;22.20;;
6420;SDS011;3243;50.958;7.012;2022-12-07T04:57:22;29.97;;;21.50;;
6420;SDS011;3243;50.958;7.012;2022-12-07T04:59:49;34.20;;;23.47;;
6420;SDS011;3243;50.958;7.012;2022-12-07T05:02:16;35.57;;;22.27;;
6420;SDS011;3243;50.958;7.012;2022-12-07T05:04:44;33.80;;;22.03;;
6420;SDS011;3243;50.958;7.012;2022-12-07T05:07:10;30.03;;;21.20;;
6420;SDS011;3243;50.958;7.012;2022-12-07T05:09:37;37.80;;;24.13;;
6420;SDS011;3243;50.958;7.012;2022-12-07T05:12:04;32.27;;;22.60;;
6420;SDS011;3243;50.958;7.012;2022-12-07T05:14:34;33.40;;;22.53;;
6420;SDS011;3243;50.958;7.012;2022-12-07T05:17:01;31.67;;;20.50;;
6420;SDS011;3243;50.958;7.012;2022-12-07T05:19:27;34.13;;;21.40;;
6420;SDS011;3243;50.958;7.012;2022-12-07T05:21:54;30.93;;;21.97;;
6420;SDS011;3243;50.958;7.012;2022-12-07T05:24:22;35.07;;;22.93;;
6420;SDS011;3243;50.958;7.012;2022-12-07T05:26:49;31.63;;;21.97;;
6420;SDS011;3243;50.958;7.012;2022-12-07T05:29:16;37.07;;;25.10;;
6420;SDS011;3243;50.958;7.012;2022-12-07T05:31:44;34.10;;;23.03;;
6420;SDS011;3243;50.958;7.012;2022-12-07T05:34:11;33.63;;;20.90;;
6420;SDS011;3243;50.958;7.012;2022-12-07T05:36:39;29.73;;;21.03;;
6420;SDS011;3243;50.958;7.012;2022-12-07T05:39:06;37.27;;;22.63;;
6420;SDS011;3243;50.958;7.012;2022-12-07T05:41:33;38.77;;;24.23;;
6420;SDS011;3243;50.958;7.012;2022-12-07T05:44:18;36.80;;;23.87;;
6420;SDS011;3243;50.958;7.012;2022-12-07T05:46:45;32.37;;;22.13;;
6420;SDS011;3243;50.958;7.012;2022-12-07T05:49:12;30.60;;;21.03;;
6420;SDS011;3243;50.958;7.012;2022-12-07T05:51:39;31.07;;;21.27;;
6420;SDS011;3243;50.958;7.012;2022-12-07T05:54:06;34.13;;;23.30;;
6420;SDS011;3243;50.958;7.012;2022-12-07T05:56:32;30.40;;;21.30;;
6420;SDS011;3243;50.958;7.012;2022-12-07T05:58:59;32.93;;;22.00;;
6420;SDS011;3243;50.958;7.012;2022-12-07T06:01:45;30.07;;;21.20;;
6420;SDS011;3243;50.958;7.012;2022-12-07T06:04:11;28.10;;;19.20;;
6420;SDS011;3243;50.958;7.012;2022-12-07T06:06:38;26.57;;;18.50;;
6420;SDS011;3243;50.958;7.012;2022-12-07T06:09:05;29.33;;;19.47;;
6420;SDS011;3243;50.958;7.012;2022-12-07T06:11:32;25.23;;;19.70;;
6420;SDS011;3243;50.958;7.012;2022-12-07T06:14:17;25.53;;;17.97;;
6420;SDS011;3243;50.958;7.012;2022-12-07T06:16:44;25.40;;;18.73;;
6420;SDS011;3243;50.958;7.012;2022-12-07T06:19:12;24.90;;;18.57;;
6420;SDS011;3243;50.958;7.012;2022-12-07T06:21:39;30.60;;;20.13;;
6420;SDS011;3243;50.958;7.012;2022-12-07T06:24:06;27.00;;;19.03;;
6420;SDS011;3243;50.958;7.012;2022-12-07T06:26:33;29.70;;;19.60;;
6420;SDS011;3243;50.958;7.012;2022-12-07T06:29:00;29.53;;;18.97;;
6420;SDS011;3243;50.958;7.012;2022-12-07T06:31:27;30.03;;;20.00;;
6420;SDS011;3243;50.958;7.012;2022-12-07T06:34:04;30.30;;;20.70;;
6420;SDS011;3243;50.958;7.012;2022-12-07T06:36:42;30.20;;;18.60;;
6420;SDS011;3243;50.958;7.012;2022-12-07T06:39:09;33.03;;;20.80;;
6420;SDS011;3243;50.958;7.012;2022-12-07T06:41:37;29.90;;;20.03;;
6420;SDS011;3243;50.958;7.012;2022-12-07T06:44:04;30.73;;;19.60;;
6420;SDS011;3243;50.958;7.012;2022-12-07T06:46:32;29.20;;;20.93;;
6420;SDS011;3243;50.958;7.012;2022-12-07T06:48:59;27.50;;;19.47;;
6420;SDS011;3243;50.958;7.012;2022-12-07T06:51:26;30.70;;;19.50;;
6420;SDS011;3243;50.958;7.012;2022-12-07T06:53:53;27.67;;;20.73;;
6420;SDS011;3243;50.958;7.012;2022-12-07T06:56:20;28.50;;;19.87;;
6420;SDS011;3243;50.958;7.012;2022-12-07T06:58:47;31.37;;;21.00;;
6420;SDS011;3243;50.958;7.012;2022-12-07T07:01:14;29.27;;;19.57;;
6420;SDS011;3243;50.958;7.012;2022-12-07T07:03:43;34.20;;;21.03;;
6420;SDS011;3243;50.958;7.012;2022-12-07T07:06:11;30.70;;;20.57;;
6420;SDS011;3243;50.958;7.012;2022-12-07T07:08:39;30.47;;;21.10;;
6420;SDS011;3243;50.958;7.012;2022-12-07T07:11:06;33.80;;;22.00;;
6420;SDS011;3243;50.958;7.012;2022-12-07T07:13:34;31.40;;;21.57;;
6420;SDS011;3243;50.958;7.012;2022-12-07T07:16:01;35.53;;;22.10;;
6420;SDS011;3243;50.958;7.012;2022-12-07T07:18:28;40.07;;;24.90;;
6420;SDS011;3243;50.958;7.012;2022-12-07T07:20:55;36.30;;;22.97;;
6420;SDS011;3243;50.958;7.012;2022-12-07T07:23:23;39.33;;;26.10;;
6420;SDS011;3243;50.958;7.012;2022-12-07T07:25:50;37.37;;;25.40;;
6420;SDS011;3243;50.958;7.012;2022-12-07T07:28:17;36.23;;;23.90;;
6420;SDS011;3243;50.958;7.012;2022-12-07T07:30:43;32.87;;;23.40;;
6420;SDS011;3243;50.958;7.012;2022-12-07T07:33:11;36.10;;;24.27;;
6420;SDS011;3243;50.958;7.012;2022-12-07T07:35:38;32.90;;;23.87;;
6420;SDS011;3243;50.958;7.012;2022-12-07T07:38:05;33.23;;;23.23;;
6420;SDS011;3243;50.958;7.012;2022-12-07T07:40:33;29.90;;;21.23;;
6420;SDS011;3243;50.958;7.012;2022-12-07T07:43:00;32.10;;;21.93;;
6420;SDS011;3243;50.958;7.012;2022-12-07T07:45:27;33.70;;;24.03;;
6420;SDS011;3243;50.958;7.012;2022-12-07T07:47:54;37.13;;;24.50;;
6420;SDS011;3243;50.958;7.012;2022-12-07T07:50:21;33.50;;;22.87;;
6420;SDS011;3243;50.958;7.012;2022-12-07T07:52:48;38.17;;;25.40;;
6420;SDS011;3243;50.958;7.012;2022-12-07T07:55:15;36.17;;;23.70;;
6420;SDS011;3243;50.958;7.012;2022-12-07T07:57:42;28.60;;;22.30;;
6420;SDS011;3243;50.958;7.012;2022-12-07T08:00:18;36.80;;;23.40;;
6420;SDS011;3243;50.958;7.012;2022-12-07T08:02:45;31.77;;;22.43;;
6420;SDS011;3243;50.958;7.012;2022-12-07T08:05:12;29.97;;;21.17;;
6420;SDS011;3243;50.958;7.012;2022-12-07T08:07:40;31.70;;;22.43;;
6420;SDS011;3243;50.958;7.012;2022-12-07T08:10:07;33.43;;;22.83;;
6420;SDS011;3243;50.958;7.012;2022-12-07T08:12:40;29.97;;;21.10;;
6420;SDS011;3243;50.958;7.012;2022-12-07T08:15:27;34.67;;;21.53;;
6420;SDS011;3243;50.958;7.012;2022-12-07T08:17:55;27.43;;;20.37;;
6420;SDS011;3243;50.958;7.012;2022-12-07T08:20:21;30.80;;;20.83;;
6420;SDS011;3243;50.958;7.012;2022-12-07T08:22:48;29.00;;;21.30;;
6420;SDS011;3243;50.958;7.012;2022-12-07T08:25:15;34.27;;;23.17;;
6420;SDS011;3243;50.958;7.012;2022-12-07T08:27:42;30.87;;;22.43;;
6420;SDS011;3243;50.958;7.012;2022-12-07T08:30:09;32.50;;;22.20;;
6420;SDS011;3243;50.958;7.012;2022-12-07T08:32:36;28.03;;;20.83;;
6420;SDS011;3243;50.958;7.012;2022-12-07T08:35:03;29.03;;;21.73;;
6420;SDS011;3243;50.958;7.012;2022-12-07T08:37:31;26.37;;;20.77;;
6420;SDS011;3243;50.958;7.012;2022-12-07T08:39:58;30.73;;;22.63;;
6420;SDS011;3243;50.958;7.012;2022-12-07T08:42:25;26.10;;;20.63;;
6420;SDS011;3243;50.958;7.012;2022-12-07T08:44:56;27.50;;;19.57;;
6420;SDS011;3243;50.958;7.012;2022-12-07T08:47:23;24.23;;;18.73;;
6420;SDS011;3243;50.958;7.012;2022-12-07T08:49:50;24.50;;;17.60;;
6420;SDS011;3243;50.958;7.012;2022-12-07T08:52:19;28.10;;;20.17;;
6420;SDS011;3243;50.958;7.012;2022-12-07T08:54:46;28.13;;;20.07;;
6420;SDS011;3243;50.958;7.012;2022-12-07T08:57:15;23.53;;;18.77;;
6420;SDS011;3243;50.958;7.012;2022-12-07T08:59:42;27.43;;;18.10;;
6420;SDS011;3243;50.958;7.012;2022-12-07T09:02:08;21.83;;;16.73;;
6420;SDS011;3243;50.958;7.012;2022-12-07T09:04:36;21.83;;;16.33;;
6420;SDS011;3243;50.958;7.012;2022-12-07T09:07:03;22.03;;;17.13;;
6420;SDS011;3243;50.958;7.012;2022-12-07T09:09:30;22.90;;;16.93;;
6420;SDS011;3243;50.958;7.012;2022-12-07T09:11:57;25.03;;;16.70;;
6420;SDS011;3243;50.958;7.012;2022-12-07T09:14:23;22.27;;;15.90;;
6420;SDS011;3243;50.958;7.012;2022-12-07T09:16:50;26.33;;;18.10;;
6420;SDS011;3243;50.958;7.012;2022-12-07T09:19:18;24.83;;;15.93;;
6420;SDS011;3243;50.958;7.012;2022-12-07T09:21:44;22.10;;;16.30;;
6420;SDS011;3243;50.958;7.012;2022-12-07T09:24:14;19.70;;;15.97;;
6420;SDS011;3243;50.958;7.012;2022-12-07T09:26:41;22.57;;;16.00;;
6420;SDS011;3243;50.958;7.012;2022-12-07T09:29:08;24.93;;;16.20;;
6420;SDS011;3243;50.958;7.012;2022-12-07T09:31:36;22.73;;;16.90;;
6420;SDS011;3243;50.958;7.012;2022-12-07T09:34:06;22.60;;;16.20;;
6420;SDS011;3243;50.958;7.012;2022-12-07T09:36:33;19.33;;;14.00;;
6420;SDS011;3243;50.958;7.012;2022-12-07T09:39:00;22.60;;;14.57;;
6420;SDS011;3243;50.958;7.012;2022-12-07T09:41:27;25.07;;;17.10;;
6420;SDS011;3243;50.958;7.012;2022-12-07T09:44:03;22.43;;;15.17;;
6420;SDS011;3243;50.958;7.012;2022-12-07T09:46:35;24.53;;;15.87;;
6420;SDS011;3243;50.958;7.012;2022-12-07T09:49:04;20.03;;;13.40;;
6420;SDS011;3243;50.958;7.012;2022-12-07T09:51:36;19.63;;;13.33;;
6420;SDS011;3243;50.958;7.012;2022-12-07T09:54:03;18.73;;;13.57;;
6420;SDS011;3243;50.958;7.012;2022-12-07T09:56:30;23.93;;;13.67;;
6420;SDS011;3243;50.958;7.012;2022-12-07T09:59:01;20.67;;;12.83;;
6420;SDS011;3243;50.958;7.012;2022-12-07T10:01:32;23.07;;;14.50;;
6420;SDS011;3243;50.958;7.012;2022-12-07T10:04:02;22.67;;;14.33;;
6420;SDS011;3243;50.958;7.012;2022-12-07T10:06:33;19.27;;;13.33;;
6420;SDS011;3243;50.958;7.012;2022-12-07T10:09:00;19.73;;;12.50;;
6420;SDS011;3243;50.958;7.012;2022-12-07T10:11:27;19.40;;;13.10;;
6420;SDS011;3243;50.958;7.012;2022-12-07T10:13:54;18.83;;;12.67;;
6420;SDS011;3243;50.958;7.012;2022-12-07T10:18:51;19.77;;;11.20;;
6420;SDS011;3243;50.958;7.012;2022-12-07T10:21:25;16.47;;;11.23;;
6420;SDS011;3243;50.958;7.012;2022-12-07T10:24:05;15.57;;;11.07;;
6420;SDS011;3243;50.958;7.012;2022-12-07T10:31:45;14.83;;;10.57;;
6420;SDS011;3243;50.958;7.012;2022-12-07T10:34:22;16.47;;;10.37;;
6420;SDS011;3243;50.958;7.012;2022-12-07T10:36:53;19.20;;;11.80;;
6420;SDS011;3243;50.958;7.012;2022-12-07T10:39:32;15.93;;;10.33;;
6420;SDS011;3243;50.958;7.012;2022-12-07T10:44:47;16.03;;;10.67;;
6420;SDS011;3243;50.958;7.012;2022-12-07T10:53:25;17.80;;;11.00;;
6420;SDS011;3243;50.958;7.012;2022-12-07T10:59:13;16.53;;;10.23;;
6420;SDS011;3243;50.958;7.012;2022-12-07T11:07:47;18.00;;;10.10;;
6420;SDS011;3243;50.958;7.012;2022-12-07T11:10:38;17.97;;;10.23;;
6420;SDS011;3243;50.958;7.012;2022-12-07T11:16:02;18.03;;;9.97;;
6420;SDS011;3243;50.958;7.012;2022-12-07T11:24:01;17.43;;;9.77;;
6420;SDS011;3243;50.958;7.012;2022-12-07T11:26:41;19.20;;;9.70;;
6420;SDS011;3243;50.958;7.012;2022-12-07T11:37:29;15.93;;;9.40;;
6420;SDS011;3243;50.958;7.012;2022-12-07T11:40:13;15.53;;;9.73;;
6420;SDS011;3243;50.958;7.012;2022-12-07T11:45:42;14.10;;;8.97;;
6420;SDS011;3243;50.958;7.012;2022-12-07T11:48:30;15.80;;;9.10;;
6420;SDS011;3243;50.958;7.012;2022-12-07T11:51:02;19.20;;;9.07;;
6420;SDS011;3243;50.958;7.012;2022-12-07T11:56:11;16.80;;;9.13;;
6420;SDS011;3243;50.958;7.012;2022-12-07T11:58:51;12.97;;;8.33;;
6420;SDS011;3243;50.958;7.012;2022-12-07T12:12:11;14.97;;;7.20;;
6420;SDS011;3243;50.958;7.012;2022-12-07T12:18:17;14.13;;;7.20;;
6420;SDS011;3243;50.958;7.012;2022-12-07T12:20:51;15.97;;;7.63;;
6420;SDS011;3243;50.958;7.012;2022-12-07T12:26:52;15.40;;;8.77;;
6420;SDS011;3243;50.958;7.012;2022-12-07T12:32:14;15.30;;;8.17;;
6420;SDS011;3243;50.958;7.012;2022-12-07T12:42:57;17.63;;;10.13;;
6420;SDS011;3243;50.958;7.012;2022-12-07T12:45:28;20.67;;;10.87;;
6420;SDS011;3243;50.958;7.012;2022-12-07T12:50:30;18.00;;;9.73;;
6420;SDS011;3243;50.958;7.012;2022-12-07T12:53:12;17.13;;;10.33;;
6420;SDS011;3243;50.958;7.012;2022-12-07T12:55:58;16.87;;;9.87;;
6420;SDS011;3243;50.958;7.012;2022-12-07T12:58:36;21.03;;;9.50;;
6420;SDS011;3243;50.958;7.012;2022-12-07T13:03:54;17.77;;;11.53;;
6420;SDS011;3243;50.958;7.012;2022-12-07T13:08:53;20.63;;;10.13;;
6420;SDS011;3243;50.958;7.012;2022-12-07T13:11:28;16.97;;;9.50;;
6420;SDS011;3243;50.958;7.012;2022-12-07T13:17:01;15.63;;;9.40;;
6420;SDS011;3243;50.958;7.012;2022-12-07T13:20:39;14.40;;;8.90;;
6420;SDS011;3243;50.958;7.012;2022-12-07T13:24:58;16.00;;;9.37;;
6420;SDS011;3243;50.958;7.012;2022-12-07T13:27:57;16.73;;;9.80;;
6420;SDS011;3243;50.958;7.012;2022-12-07T13:30:27;19.53;;;9.40;;
6420;SDS011;3243;50.958;7.012;2022-12-07T13:32:56;20.50;;;10.17;;
6420;SDS011;3243;50.958;7.012;2022-12-07T13:37:57;16.47;;;9.83;;
6420;SDS011;3243;50.958;7.012;2022-12-07T13:40:24;17.70;;;8.90;;
6420;SDS011;3243;50.958;7.012;2022-12-07T13:42:58;17.73;;;9.73;;
6420;SDS011;3243;50.958;7.012;2022-12-07T13:45:27;15.57;;;9.17;;
6420;SDS011;3243;50.958;7.012;2022-12-07T13:48:20;16.37;;;8.97;;
6420;SDS011;3243;50.958;7.012;2022-12-07T13:50:55;17.93;;;8.77;;
6420;SDS011;3243;50.958;7.012;2022-12-07T13:53:22;15.60;;;8.93;;
6420;SDS011;3243;50.958;7.012;2022-12-07T13:55:50;15.73;;;8.63;;
6420;SDS011;3243;50.958;7.012;2022-12-07T13:58:24;17.57;;;9.33;;
6420;SDS011;3243;50.958;7.012;2022-12-07T14:00:52;11.63;;;8.67;;
6420;SDS011;3243;50.958;7.012;2022-12-07T14:03:25;12.57;;;8.60;;
6420;SDS011;3243;50.958;7.012;2022-12-07T14:08:31;14.53;;;9.00;;
6420;SDS011;3243;50.958;7.012;2022-12-07T14:10:58;17.13;;;9.70;;
6420;SDS011;3243;50.958;7.012;2022-12-07T14:16:24;14.77;;;9.23;;
6420;SDS011;3243;50.958;7.012;2022-12-07T14:18:51;12.90;;;8.70;;
6420;SDS011;3243;50.958;7.012;2022-12-07T14:21:19;14.70;;;8.73;;
6420;SDS011;3243;50.958;7.012;2022-12-07T14:24:02;16.07;;;8.90;;
6420;SDS011;3243;50.958;7.012;2022-12-07T14:26:40;14.23;;;8.67;;
6420;SDS011;3243;50.958;7.012;2022-12-07T14:31:52;16.10;;;8.63;;
6420;SDS011;3243;50.958;7.012;2022-12-07T14:34:20;13.70;;;8.67;;
6420;SDS011;3243;50.958;7.012;2022-12-07T14:36:47;16.60;;;8.60;;
6420;SDS011;3243;50.958;7.012;2022-12-07T14:39:14;14.70;;;9.20;;
6420;SDS011;3243;50.958;7.012;2022-12-07T14:41:41;16.13;;;9.03;;
6420;SDS011;3243;50.958;7.012;2022-12-07T14:44:18;16.07;;;9.40;;
6420;SDS011;3243;50.958;7.012;2022-12-07T14:46:50;15.43;;;9.17;;
6420;SDS011;3243;50.958;7.012;2022-12-07T14:49:37;17.70;;;8.80;;
6420;SDS011;3243;50.958;7.012;2022-12-07T14:52:04;16.83;;;9.43;;
6420;SDS011;3243;50.958;7.012;2022-12-07T14:54:56;11.87;;;8.70;;
6420;SDS011;3243;50.958;7.012;2022-12-07T14:57:23;12.87;;;8.73;;
6420;SDS011;3243;50.958;7.012;2022-12-07T14:59:50;16.13;;;9.63;;
6420;SDS011;3243;50.958;7.012;2022-12-07T15:02:17;15.80;;;10.00;;
6420;SDS011;3243;50.958;7.012;2022-12-07T15:04:44;17.07;;;9.33;;
6420;SDS011;3243;50.958;7.012;2022-12-07T15:07:20;14.23;;;9.00;;
6420;SDS011;3243;50.958;7.012;2022-12-07T15:09:48;14.37;;;9.80;;
6420;SDS011;3243;50.958;7.012;2022-12-07T15:12:14;12.07;;;8.77;;
6420;SDS011;3243;50.958;7.012;2022-12-07T15:14:42;13.77;;;9.13;;
6420;SDS011;3243;50.958;7.012;2022-12-07T15:17:10;17.80;;;9.93;;
6420;SDS011;3243;50.958;7.012;2022-12-07T15:19:55;18.93;;;10.20;;
6420;SDS011;3243;50.958;7.012;2022-12-07T15:22:22;14.00;;;10.03;;
6420;SDS011;3243;50.958;7.012;2022-12-07T15:24:49;14.53;;;10.30;;
6420;SDS011;3243;50.958;7.012;2022-12-07T15:27:15;13.63;;;9.53;;
6420;SDS011;3243;50.958;7.012;2022-12-07T15:29:42;14.90;;;9.70;;
6420;SDS011;3243;50.958;7.012;2022-12-07T15:32:09;18.63;;;10.37;;
6420;SDS011;3243;50.958;7.012;2022-12-07T15:34:36;7.80;;;5.47;;
6420;SDS011;3243;50.958;7.012;2022-12-07T15:37:06;11.37;;;4.30;;
6420;SDS011;3243;50.958;7.012;2022-12-07T15:39:33;7.00;;;4.50;;
6420;SDS011;3243;50.958;7.012;2022-12-07T15:42:01;7.50;;;4.40;;
6420;SDS011;3243;50.958;7.012;2022-12-07T15:44:28;5.77;;;4.40;;
6420;SDS011;3243;50.958;7.012;2022-12-07T15:47:14;9.73;;;4.83;;
6420;SDS011;3243;50.958;7.012;2022-12-07T15:49:41;7.53;;;4.40;;
6420;SDS011;3243;50.958;7.012;2022-12-07T15:52:08;7.73;;;3.70;;
6420;SDS011;3243;50.958;7.012;2022-12-07T15:54:35;7.83;;;3.80;;
6420;SDS011;3243;50.958;7.012;2022-12-07T15:57:02;4.77;;;3.70;;
6420;SDS011;3243;50.958;7.012;2022-12-07T15:59:29;8.00;;;4.30;;
6420;SDS011;3243;50.958;7.012;2022-12-07T16:01:56;4.90;;;3.93;;
6420;SDS011;3243;50.958;7.012;2022-12-07T16:04:23;5.23;;;3.77;;
6420;SDS011;3243;50.958;7.012;2022-12-07T16:06:50;7.57;;;4.37;;
6420;SDS011;3243;50.958;7.012;2022-12-07T16:09:17;7.07;;;4.60;;
6420;SDS011;3243;50.958;7.012;2022-12-07T16:11:44;20.70;;;11.23;;
6420;SDS011;3243;50.958;7.012;2022-12-07T16:14:11;14.57;;;9.40;;
6420;SDS011;3243;50.958;7.012;2022-12-07T16:16:38;16.70;;;11.23;;
6420;SDS011;3243;50.958;7.012;2022-12-07T16:19:08;13.67;;;9.27;;
6420;SDS011;3243;50.958;7.012;2022-12-07T16:21:36;11.37;;;8.57;;
6420;SDS011;3243;50.958;7.012;2022-12-07T16:24:03;12.00;;;8.30;;
6420;SDS011;3243;50.958;7.012;2022-12-07T16:26:31;13.57;;;8.80;;
6420;SDS011;3243;50.958;7.012;2022-12-07T16:28:58;16.37;;;10.47;;
6420;SDS011;3243;50.958;7.012;2022-12-07T16:31:26;12.80;;;9.10;;
6420;SDS011;3243;50.958;7.012;2022-12-07T16:33:54;13.97;;;9.70;;
6420;SDS011;3243;50.958;7.012;2022-12-07T16:36:22;12.07;;;9.30;;
6420;SDS011;3243;50.958;7.012;2022-12-07T16:39:10;13.07;;;8.63;;
6420;SDS011;3243;50.958;7.012;2022-12-07T16:41:37;13.27;;;8.50;;
6420;SDS011;3243;50.958;7.012;2022-12-07T16:44:04;17.03;;;12.80;;
6420;SDS011;3243;50.958;7.012;2022-12-07T16:46:33;15.90;;;9.67;;
6420;SDS011;3243;50.958;7.012;2022-12-07T16:49:02;12.50;;;9.83;;
6420;SDS011;3243;50.958;7.012;2022-12-07T16:51:29;14.07;;;9.37;;
6420;SDS011;3243;50.958;7.012;2022-12-07T16:53:56;14.03;;;8.90;;
6420;SDS011;3243;50.958;7.012;2022-12-07T16:56:24;13.63;;;9.27;;
6420;SDS011;3243;50.958;7.012;2022-12-07T16:58:52;11.53;;;7.80;;
6420;SDS011;3243;50.958;7.012;2022-12-07T17:01:19;12.20;;;8.10;;
6420;SDS011;3243;50.958;7.012;2022-12-07T17:03:49;8.90;;;6.63;;
6420;SDS011;3243;50.958;7.012;2022-12-07T17:06:18;10.73;;;6.03;;
6420;SDS011;3243;50.958;7.012;2022-12-07T17:08:49;9.40;;;7.30;;
6420;SDS011;3243;50.958;7.012;2022-12-07T17:11:21;12.57;;;7.77;;
6420;SDS011;3243;50.958;7.012;2022-12-07T17:13:49;12.53;;;7.30;;
6420;SDS011;3243;50.958;7.012;2022-12-07T17:16:35;10.13;;;6.90;;
6420;SDS011;3243;50.958;7.012;2022-12-07T17:19:03;10.43;;;7.20;;
6420;SDS011;3243;50.958;7.012;2022-12-07T17:21:35;8.47;;;6.90;;
6420;SDS011;3243;50.958;7.012;2022-12-07T17:24:03;12.33;;;8.10;;
6420;SDS011;3243;50.958;7.012;2022-12-07T17:26:31;14.47;;;8.03;;
6420;SDS011;3243;50.958;7.012;2022-12-07T17:29:01;13.43;;;8.30;;